Flight Track Log - Related Links

Times and Time Zones

All times are in EDT time to prevent confusion due to time zone crossing. See the SWA1319 flight status page for this flight to view local times or setup timezone preferences in your user account.

Time Position Orientation Groundspeed Altitude Reporting Facility
EDT Latitude Longitude Course Direction KTS MPH feet Rate Location/Type
Mon 05:31:30 PM 39.2833 -94.7333 218° Southwest 172 198 1,800  Level Kansas City TRACON
Mon 05:32:30 PM 39.2500 -94.7667 218° Southwest 221 254 3,700 1,786 Climbing Kansas City TRACON
Mon 05:32:54 PM 39.2219 -94.7936 217° Southwest 231 266 4,300 2,721 Climbing Kansas City Center
Mon 05:33:56 PM 39.2308 -94.8786 278° West 253 291 7,600 2,710 Climbing Kansas City Center
Mon 05:34:58 PM 39.2453 -94.9794 281° West 260 299 9,900 1,403 Climbing Kansas City Center
Mon 05:36:00 PM 39.2589 -95.0819 280° West 301 346 10,500 1,403 Climbing Kansas City Center
Mon 05:37:02 PM 39.2767 -95.2175 280° West 351 404 12,800 2,226 Climbing Kansas City Center
Mon 05:38:04 PM 39.2947 -95.3542 280° West 367 422 15,100 2,177 Climbing Kansas City Center
Mon 05:39:06 PM 39.2969 -95.4819 271° West 365 420 17,300 2,032 Climbing Kansas City Center
Mon 05:40:08 PM 39.2983 -95.6086 271° West 369 425 19,300 1,839 Climbing Kansas City Center
Mon 05:41:10 PM 39.2994 -95.7606 271° West 378 435 21,100 1,548 Climbing Kansas City Center
Mon 05:42:12 PM 39.3003 -95.8950 271° West 391 450 22,500 1,403 Climbing Kansas City Center
Mon 05:43:14 PM 39.3017 -96.0550 271° West 399 459 24,000 1,161 Climbing Kansas City Center
Mon 05:44:16 PM 39.3083 -96.1797 274° West 405 466 24,900 1,161 Climbing Kansas City Center
Mon 05:45:18 PM 39.3467 -96.3519 286° West 416 479 26,400 1,306 Climbing Kansas City Center
Mon 05:46:20 PM 39.3789 -96.4975 286° West 421 484 27,600 1,210 Climbing Kansas City Center
Mon 05:47:22 PM 39.4136 -96.6556 286° West 419 482 28,900 1,113 Climbing Kansas City Center
Mon 05:48:24 PM 39.4447 -96.7942 286° West 421 484 29,900 871 Climbing Kansas City Center
Mon 05:49:26 PM 39.4742 -96.9339 285° West 419 482 30,700 912 Climbing Kansas City Center
Mon 05:50:29 PM 39.5103 -97.0975 286° West 423 487 31,800 1,056 Climbing Kansas City Center
Mon 05:51:31 PM 39.5428 -97.2414 286° West 419 482 32,900 823 Climbing Kansas City Center
Mon 05:52:33 PM 39.5725 -97.3850 285° West 414 476 33,500 532 Climbing Kansas City Center
Mon 05:53:35 PM 39.6014 -97.5294 285° West 414 476 34,000 242 Climbing Kansas City Center
Mon 05:54:37 PM 39.6392 -97.7008 286° West 412 474 34,000  Level Kansas City Center
Mon 05:54:58 PM 39.6453 -97.7303 285° West 412 474 34,000  Level Minneapolis Center
Mon 05:55:59 PM 39.6744 -97.8725 285° West 410 472 34,000  Level Minneapolis Center
Mon 05:57:01 PM 39.7106 -98.0453 285° West 410 472 34,000  Level Minneapolis Center
Mon 05:58:03 PM 39.7392 -98.1894 285° West 411 473 34,000  Level Minneapolis Center
Mon 05:59:05 PM 39.7697 -98.3336 285° West 413 475 34,000  Level Minneapolis Center
Mon 06:00:07 PM 39.7983 -98.4778 285° West 412 474 34,000  Level Minneapolis Center
Mon 06:01:08 PM 39.8283 -98.6231 285° West 414 476 34,000  Level Minneapolis Center
Mon 06:02:10 PM 39.8567 -98.7653 285° West 409 471 34,000  Level Minneapolis Center
Mon 06:03:12 PM 39.8842 -98.9086 284° West 408 470 34,000  Level Minneapolis Center
Mon 06:04:14 PM 39.9125 -99.0508 285° West 406 467 34,000  Level Minneapolis Center
Mon 06:05:16 PM 39.9456 -99.2192 284° West 401 461 34,000  Level Minneapolis Center
Mon 06:05:34 PM 39.9453 -99.2206 255° West 403 464 34,000  Level Denver Center
Mon 06:06:37 PM 39.9781 -99.3886 284° West 401 461 34,000  Level Denver Center
Mon 06:07:39 PM 40.0044 -99.5292 284° West 400 460 34,000  Level Denver Center
Mon 06:08:40 PM 40.0317 -99.6711 284° West 402 463 34,000  Level Denver Center
Mon 06:09:42 PM 40.0653 -99.8431 284° West 406 467 34,000  Level Denver Center
Mon 06:10:44 PM 40.0922 -99.9917 283° West 406 467 34,000  Level Denver Center
Mon 06:11:46 PM 40.1186 -100.1281 284° West 404 465 34,000  Level Denver Center
Mon 06:13:00 PM 40.1433 -100.2664 283° West 407 468 34,000  Level Denver Center
Mon 06:14:02 PM 40.1775 -100.4508 284° West 408 470 34,000  Level Denver Center
Mon 06:15:04 PM 40.2106 -100.6108 285° West 407 468 34,000  Level Denver Center
Mon 06:16:06 PM 40.2597 -100.7361 297° West 403 464 34,000  Level Denver Center
Mon 06:17:08 PM 40.3072 -100.8611 297° West 401 461 34,000  Level Denver Center
Mon 06:18:09 PM 40.3636 -101.0083 297° West 403 464 34,000  Level Denver Center
Mon 06:19:11 PM 40.4108 -101.1342 296° West 401 461 34,000  Level Denver Center
Mon 06:20:13 PM 40.4508 -101.2372 297° West 397 457 34,000  Level Denver Center
Mon 06:21:15 PM 40.5133 -101.4003 297° West 391 450 34,000  Level Denver Center
Mon 06:22:17 PM 40.5661 -101.5411 296° West 385 443 34,000  Level Denver Center
Mon 06:23:19 PM 40.6117 -101.6633 296° West 386 444 34,000  Level Denver Center
Mon 06:24:21 PM 40.6564 -101.7842 296° West 384 442 34,000  Level Denver Center
Mon 06:25:23 PM 40.7094 -101.9253 296° West 383 441 34,000  Level Denver Center
Mon 06:26:37 PM 40.7700 -102.0869 296° West 386 444 34,000  Level Denver Center
Mon 06:27:39 PM 40.8153 -102.2106 296° West 390 449 34,000  Level Denver Center
Mon 06:28:40 PM 40.8614 -102.3344 296° West 393 452 34,000  Level Denver Center
Mon 06:29:42 PM 40.9144 -102.4806 296° West 395 455 34,000  Level Denver Center
Mon 06:30:44 PM 40.9600 -102.6039 296° West 391 450 34,000  Level Denver Center
Mon 06:31:46 PM 41.0103 -102.7453 295° West 382 440 34,000  Level Denver Center
Mon 06:32:48 PM 41.0536 -102.8653 296° West 379 436 34,000  Level Denver Center
Mon 06:33:49 PM 41.1053 -102.9983 297° West 376 433 34,000  Level Denver Center
Mon 06:34:51 PM 41.1711 -103.1008 310° West 382 440 34,000  Level Denver Center
Mon 06:35:53 PM 41.2486 -103.2219 310° West 385 443 34,000  Level Denver Center
Mon 06:36:55 PM 41.3144 -103.3269 310° West 387 445 34,000  Level Denver Center
Mon 06:37:57 PM 41.3906 -103.4475 310° West 383 441 34,000 -49 Level Denver Center
Mon 06:38:58 PM 41.4544 -103.5503 310° West 378 435 33,900  Descending Denver Center
Mon 06:40:00 PM 41.5286 -103.6692 310° West 375 432 34,000 48 Climbing Denver Center
Mon 06:41:02 PM 41.5919 -103.7706 310° West 373 429 34,000  Level Denver Center
Mon 06:42:03 PM 41.6561 -103.8717 310° West 372 428 34,000  Level Denver Center
Mon 06:43:05 PM 41.7308 -103.9922 310° West 376 433 34,000  Level Denver Center
Mon 06:44:07 PM 41.7936 -104.0953 309° West 373 429 34,000  Level Denver Center
Mon 06:45:09 PM 41.8669 -104.2156 309° West 372 428 34,000  Level Denver Center
Mon 06:46:10 PM 41.9294 -104.3172 310° West 369 425 34,000  Level Denver Center
Mon 06:47:12 PM 41.9925 -104.4189 310° West 369 425 34,000  Level Denver Center
Mon 06:48:14 PM 42.0658 -104.5406 309° West 374 430 34,000  Level Denver Center
Mon 06:49:15 PM 42.1297 -104.6450 310° West 375 432 34,000  Level Denver Center
Mon 06:50:17 PM 42.2039 -104.7683 309° West 377 434 34,000  Level Denver Center
Mon 06:51:19 PM 42.2675 -104.8744 309° West 378 435 34,000  Level Denver Center
Mon 06:52:21 PM 42.3428 -104.9986 309° West 379 436 34,000  Level Denver Center
Mon 06:53:23 PM 42.4064 -105.1044 309° West 378 435 34,000  Level Denver Center
Mon 06:54:36 PM 42.4686 -105.2117 308° West 376 433 34,000  Level Denver Center
Mon 06:55:38 PM 42.5419 -105.3347 309° West 375 432 34,000  Level Denver Center
Mon 06:56:52 PM 42.6150 -105.4569 309° West 374 430 34,000  Level Denver Center
Mon 06:57:54 PM 42.6975 -105.5994 308° West 376 433 34,000  Level Denver Center
Mon 06:58:56 PM 42.7714 -105.7256 309° West 381 438 34,000 -48 Level Denver Center
Mon 06:59:58 PM 42.8358 -105.8347 309° West 385 443 33,900 -629 Descending Denver Center
Mon 07:01:00 PM 42.9067 -105.9589 308° West 374 430 32,700 -919 Descending Denver Center
Mon 07:02:02 PM 42.9678 -106.0642 308° West 369 425 32,000 -309 Descending Denver Center
Mon 07:03:16 PM 43.0283 -106.1689 308° West 368 423 32,000  Level Denver Center
Mon 07:04:18 PM 43.0983 -106.3150 303° West 360 414 32,000  Level Denver Center
Mon 07:05:20 PM 43.1264 -106.4611 285° West 357 411 32,000  Level Denver Center
Mon 07:06:22 PM 43.1500 -106.5872 284° West 359 413 32,000  Level Denver Center
Mon 07:07:24 PM 43.1781 -106.7367 284° West 364 419 32,000  Level Denver Center
Mon 07:08:25 PM 43.2033 -106.8653 285° West 365 420 32,000  Level Denver Center
Mon 07:09:27 PM 43.2292 -107.0056 284° West 368 423 32,000 -45 Level Denver Center
Mon 07:10:38 PM 43.2561 -107.1575 284° West 367 422 31,900  Descending Salt Lake Center
Mon 07:11:39 PM 43.2839 -107.3036 285° West 356 410 32,000 49 Climbing Salt Lake Center
Mon 07:12:40 PM 43.3067 -107.4272 284° West 351 404 32,000  Level Salt Lake Center
Mon 07:13:42 PM 43.3292 -107.5517 284° West 351 404 32,000  Level Salt Lake Center
Mon 07:14:43 PM 43.3556 -107.6975 284° West 354 407 32,000  Level Salt Lake Center
Mon 07:15:45 PM 43.3778 -107.8267 283° West 362 417 32,000  Level Salt Lake Center
Mon 07:16:46 PM 43.4050 -107.9778 284° West 365 420 32,000  Level Salt Lake Center
Mon 07:17:48 PM 43.4281 -108.1069 284° West 364 419 32,000  Level Salt Lake Center
Mon 07:18:49 PM 43.4511 -108.2358 284° West 363 418 32,000  Level Salt Lake Center
Mon 07:19:50 PM 43.4775 -108.3883 283° West 366 421 32,000  Level Salt Lake Center
Mon 07:20:52 PM 43.5017 -108.5194 284° West 369 425 32,000  Level Salt Lake Center
Mon 07:21:53 PM 43.5281 -108.6739 283° West 372 428 32,000  Level Salt Lake Center
Mon 07:22:55 PM 43.5517 -108.8067 284° West 372 428 32,000  Level Salt Lake Center
Mon 07:23:56 PM 43.5747 -108.9389 284° West 369 425 32,000  Level Salt Lake Center
Mon 07:24:58 PM 43.6008 -109.0922 283° West 368 423 32,000  Level Salt Lake Center
Mon 07:25:59 PM 43.6228 -109.2197 283° West 358 412 32,000  Level Salt Lake Center
Mon 07:27:01 PM 43.6464 -109.3619 283° West 341 392 32,000  Level Salt Lake Center
Mon 07:28:02 PM 43.6672 -109.4819 284° West 335 386 32,000  Level Salt Lake Center
Mon 07:29:04 PM 43.6889 -109.6158 283° West 331 381 32,000  Level Salt Lake Center
Mon 07:30:05 PM 43.7086 -109.7328 283° West 329 379 32,000  Level Salt Lake Center
Mon 07:31:07 PM 43.7272 -109.8500 282° West 328 377 32,000  Level Salt Lake Center
Mon 07:32:08 PM 43.7506 -109.9883 283° West 331 381 32,000  Level Salt Lake Center
Mon 07:33:10 PM 43.7703 -110.1056 283° West 329 379 32,000  Level Salt Lake Center
Mon 07:34:11 PM 43.7917 -110.2431 282° West 326 375 32,000  Level Salt Lake Center
Mon 07:35:13 PM 43.8119 -110.3597 284° West 326 375 32,000  Level Salt Lake Center
Mon 07:36:14 PM 43.8306 -110.4769 282° West 326 375 32,000  Level Salt Lake Center
Mon 07:37:16 PM 43.8522 -110.6167 282° West 331 381 32,000  Level Salt Lake Center
Mon 07:38:17 PM 43.8706 -110.7364 282° West 331 381 32,000  Level Salt Lake Center
Mon 07:39:19 PM 43.8917 -110.8747 282° West 328 377 32,000  Level Salt Lake Center
Mon 07:40:20 PM 43.9094 -110.9928 282° West 327 376 32,000  Level Salt Lake Center
Mon 07:41:22 PM 43.9281 -111.1108 282° West 326 375 32,000  Level Salt Lake Center
Mon 07:42:23 PM 43.9492 -111.2500 282° West 329 379 32,000  Level Salt Lake Center
Mon 07:43:25 PM 43.9667 -111.3700 281° West 330 380 32,000  Level Salt Lake Center
Mon 07:44:26 PM 43.9881 -111.5119 282° West 335 386 32,000  Level Salt Lake Center
Mon 07:45:28 PM 44.0069 -111.6347 282° West 338 389 32,000  Level Salt Lake Center
Mon 07:46:29 PM 44.0239 -111.7564 281° West 336 387 32,000  Level Salt Lake Center
Mon 07:47:31 PM 44.0450 -111.9003 282° West 340 391 32,000  Level Salt Lake Center
Mon 07:48:32 PM 44.0639 -112.0253 282° West 342 394 32,000  Level Salt Lake Center
Mon 07:49:34 PM 44.0819 -112.1667 280° West 333 383 32,000  Level Salt Lake Center
Mon 07:50:36 PM 44.1025 -112.2889 283° West 338 389 32,000  Level Salt Lake Center
Mon 07:51:37 PM 44.1261 -112.4125 285° West 343 395 32,000  Level Salt Lake Center
Mon 07:52:39 PM 44.1561 -112.5628 286° West 356 410 32,000  Level Salt Lake Center
Mon 07:53:40 PM 44.1778 -112.6847 284° West 343 395 32,000  Level Salt Lake Center
Mon 07:54:42 PM 44.2019 -112.8183 284° West 322 371 32,000  Level Salt Lake Center
Mon 07:55:43 PM 44.2233 -112.9331 285° West 320 368 32,000  Level Salt Lake Center
Mon 07:56:45 PM 44.2439 -113.0492 284° West 321 369 32,000  Level Salt Lake Center
Mon 07:57:46 PM 44.2697 -113.1883 285° West 331 381 32,000  Level Salt Lake Center
Mon 07:58:48 PM 44.2914 -113.3067 284° West 330 380 32,000  Level Salt Lake Center
Mon 07:59:50 PM 44.3147 -113.4425 284° West 324 373 32,000  Level Salt Lake Center
Mon 08:00:51 PM 44.3342 -113.5572 283° West 317 365 32,000 -146 Level Salt Lake Center
Mon 08:01:53 PM 44.3575 -113.6922 284° West 320 368 31,700 -634 Descending Salt Lake Center
Mon 08:02:54 PM 44.3775 -113.8103 283° West 325 374 30,700 -829 Descending Salt Lake Center
Mon 08:03:56 PM 44.4014 -113.9342 285° West 334 384 30,000 -341 Descending Salt Lake Center
Mon 08:04:57 PM 44.4275 -114.0725 285° West 331 381 30,000  Level Salt Lake Center
Mon 08:05:59 PM 44.4475 -114.1939 283° West 334 384 30,000  Level Salt Lake Center
Mon 08:07:00 PM 44.4683 -114.3131 284° West 331 381 30,000  Level Salt Lake Center
Mon 08:08:02 PM 44.4897 -114.4511 282° West 326 375 30,000  Level Salt Lake Center
Mon 08:09:03 PM 44.5128 -114.5697 285° West 328 377 30,000 439 Level Salt Lake Center
Mon 08:10:05 PM 44.5350 -114.7081 283° West 326 375 30,900 968 Climbing Salt Lake Center
Mon 08:11:07 PM 44.5544 -114.8264 283° West 326 375 32,000 537 Climbing Salt Lake Center
Mon 08:12:08 PM 44.5769 -114.9622 283° West 322 371 32,000  Level Salt Lake Center
Mon 08:13:10 PM 44.5956 -115.0775 283° West 317 365 32,000  Level Salt Lake Center
Mon 08:14:11 PM 44.6142 -115.1928 283° West 317 365 32,000  Level Salt Lake Center
Mon 08:15:13 PM 44.6364 -115.3281 283° West 319 367 32,000  Level Salt Lake Center
Mon 08:16:14 PM 44.6556 -115.4442 283° West 319 367 32,000  Level Salt Lake Center
Mon 08:17:16 PM 44.6778 -115.5781 283° West 317 365 32,000  Level Salt Lake Center
Mon 08:18:17 PM 44.6956 -115.6958 282° West 320 368 32,000  Level Salt Lake Center
Mon 08:19:19 PM 44.7172 -115.8328 283° West 323 372 32,000  Level Salt Lake Center
Mon 08:20:20 PM 44.7358 -115.9492 283° West 321 369 32,000  Level Salt Lake Center
Mon 08:21:22 PM 44.7539 -116.0653 282° West 321 369 32,000  Level Salt Lake Center
Mon 08:22:23 PM 44.7747 -116.1997 282° West 318 366 32,000  Level Salt Lake Center
Mon 08:23:25 PM 44.7919 -116.3153 282° West 318 366 32,000  Level Salt Lake Center
Mon 08:24:26 PM 44.8128 -116.4539 282° West 324 373 32,000  Level Salt Lake Center
Mon 08:25:28 PM 44.8322 -116.5789 282° West 338 389 32,000  Level Salt Lake Center
Mon 08:26:29 PM 44.8528 -116.7231 281° West 338 389 32,000  Level Salt Lake Center
Mon 08:27:31 PM 44.8708 -116.8411 282° West 329 379 32,000  Level Salt Lake Center
Mon 08:28:32 PM 44.8867 -116.9561 281° West 317 365 32,000  Level Salt Lake Center
Mon 08:29:34 PM 44.9072 -117.0911 282° West 316 364 32,000  Level Salt Lake Center
Mon 08:30:25 PM 44.9206 -117.1911 281° West 321 369 32,000  Level Seattle Center
Mon 08:31:26 PM 44.9414 -117.3344 282° West 331 381 32,000  Level Seattle Center
Mon 08:32:27 PM 44.9586 -117.4561 281° West 332 382 32,000  Level Seattle Center
Mon 08:33:28 PM 44.9761 -117.5792 281° West 333 383 32,000  Level Seattle Center
Mon 08:34:28 PM 44.9961 -117.7211 281° West 331 381 32,000  Level Seattle Center
Mon 08:35:29 PM 45.0147 -117.8414 282° West 329 379 32,000  Level Seattle Center
Mon 08:36:30 PM 45.0303 -117.9611 280° West 326 375 32,000  Level Seattle Center
Mon 08:37:31 PM 45.0492 -118.0994 281° West 322 371 32,000  Level Seattle Center
Mon 08:38:48 PM 45.0706 -118.2403 282° West 321 369 32,000  Level Salt Lake Center
Mon 08:39:49 PM 45.0858 -118.3633 280° West 320 368 32,000  Level Salt Lake Center
Mon 08:40:34 PM 45.0986 -118.4594 281° West 315 362 32,000  Level Seattle Center
Mon 08:41:35 PM 45.1147 -118.5844 280° West 323 372 32,000  Level Seattle Center
Mon 08:42:36 PM 45.1319 -118.7081 281° West 322 371 32,000  Level Seattle Center
Mon 08:43:37 PM 45.1472 -118.8331 280° West 323 372 32,000  Level Seattle Center
Mon 08:44:38 PM 45.1639 -118.9578 281° West 325 374 32,000  Level Seattle Center
Mon 08:45:39 PM 45.1803 -119.0847 280° West 328 377 32,000  Level Seattle Center
Mon 08:46:40 PM 45.2000 -119.2383 280° West 333 383 32,000  Level Seattle Center
Mon 08:47:41 PM 45.2161 -119.3694 280° West 337 388 32,000  Level Seattle Center
Mon 08:48:42 PM 45.2311 -119.4975 279° West 333 383 32,000 -49 Level Seattle Center
Mon 08:49:43 PM 45.2469 -119.6247 280° West 332 382 31,900  Descending Seattle Center
Mon 08:50:44 PM 45.2619 -119.7492 280° West 325 374 32,000 49 Climbing Seattle Center
Mon 08:51:45 PM 45.2767 -119.8761 279° West 329 379 32,000  Level Seattle Center
Mon 08:52:46 PM 45.2919 -120.0019 280° West 329 379 32,000  Level Seattle Center
Mon 08:53:47 PM 45.3058 -120.1286 279° West 328 377 32,000  Level Seattle Center
Mon 08:54:47 PM 45.3211 -120.2561 280° West 330 380 32,000  Level Seattle Center
Mon 08:55:48 PM 45.3392 -120.4108 279° West 332 382 32,000 -443 Level Seattle Center
Mon 08:56:49 PM 45.3553 -120.5414 280° West 334 384 31,100 -934 Descending Seattle Center
Mon 08:57:50 PM 45.3700 -120.6731 279° West 337 388 30,100 -1,033 Descending Seattle Center
Mon 08:58:51 PM 45.3836 -120.8044 278° West 336 387 29,000 -1,820 Descending Seattle Center
Mon 08:59:52 PM 45.3994 -120.9331 280° West 332 382 26,400 -2,508 Descending Seattle Center
Mon 09:00:53 PM 45.4119 -121.0606 278° West 326 375 23,900 -2,410 Descending Seattle Center
Mon 09:01:54 PM 45.4264 -121.1886 279° West 327 376 21,500 -2,504 Descending Seattle Center
Mon 09:02:48 PM 45.4403 -121.3153 279° West 322 371 19,100 -2,400 Descending Seattle Center
Mon 09:03:49 PM 45.4578 -121.4378 282° West 309 356 16,900 -2,315 Descending Seattle Center
Mon 09:04:55 PM 45.4736 -121.5733 280° West 327 376 14,200 -2,203 Descending Seattle Center
Mon 09:05:57 PM 45.4861 -121.6797 280° West 307 353 12,200 -1,820 Descending Seattle Center
Mon 09:06:57 PM 45.4986 -121.8161 277° West 281 323 10,500 -1,587 Descending Seattle Center
Mon 09:07:58 PM 45.5028 -121.9194 273° West 254 292 9,000 -1,574 Descending Seattle Center
Mon 09:08:59 PM 45.5036 -122.0178 271° West 253 291 7,300 -1,086 Descending Seattle Center
Mon 09:09:54 PM 45.4931 -122.1025 260° West 222 255 6,900 -626 Descending Seattle Center
Mon 09:10:54 PM 45.4717 -122.1669 245° Southwest 171 197 6,100 -887 Descending Seattle Center
Mon 09:11:49 PM 45.4739 -122.2308 273° West 175 201 5,200 -927 Descending Seattle Center
Mon 09:12:44 PM 45.4886 -122.2925 289° West 180 207 4,400 -811 Descending Seattle Center
Mon 09:13:03 PM 45.4953 -122.3106 298° West 177 204 4,200 -889 Descending Seattle Center
Mon 09:13:38 PM 45.5075 -122.3525 293° West 178 205 3,600 -984 Descending Seattle Center
Mon 09:14:04 PM 45.5153 -122.3750 296° West 179 206 3,200 -1,063 Descending Seattle Center
Mon 09:14:57 PM 45.5328 -122.4347 293° West 177 204 2,200 -1,056 Descending Seattle Center
Mon 09:15:52 PM 45.5525 -122.4883 298° West 162 186 1,300 -826 Descending Seattle Center
Mon 09:16:46 PM 45.5667 -122.5258 298° West 124 143 700 -640 Descending Seattle Center
Mon 09:17:07 PM 45.5739 -122.5403 306° West 156 180 500 -735 Descending Seattle Center
Mon 09:17:35 PM 45.5806 -122.5633 292° West 124 143 100 -200 Descending Seattle Center
Mon 09:18:07 PM 45.5917 -122.5864 305° West 152 175 300 375 Climbing Seattle Center

Login

Don't have an account? Register now (free) for customized features, flight alerts, and more!